createdAt,value
2023-02-08T00:01:48.894Z,14.48
2023-02-08T00:04:15.525Z,13.95
2023-02-08T00:06:42.193Z,14.85
2023-02-08T00:09:09.110Z,14.15
2023-02-08T00:11:35.783Z,13.20
2023-02-08T00:14:02.468Z,14.48
2023-02-08T00:16:29.140Z,13.23
2023-02-08T00:18:56.226Z,14.23
2023-02-08T00:21:22.897Z,13.10
2023-02-08T00:23:49.657Z,14.70
2023-02-08T00:26:16.526Z,14.13
2023-02-08T00:28:43.183Z,14.68
2023-02-08T00:31:09.880Z,13.95
2023-02-08T00:33:36.648Z,13.88
2023-02-08T00:36:05.941Z,13.20
2023-02-08T00:38:35.292Z,14.00
2023-02-08T00:41:01.968Z,12.80
2023-02-08T00:43:28.639Z,12.85
2023-02-08T00:45:56.203Z,13.98
2023-02-08T00:48:22.933Z,13.43
2023-02-08T00:50:58.805Z,13.48
2023-02-08T00:53:25.645Z,14.00
2023-02-08T00:55:53.246Z,13.43
2023-02-08T00:58:19.867Z,14.35
2023-02-08T01:00:46.565Z,13.85
2023-02-08T01:03:13.270Z,13.70
2023-02-08T01:05:39.925Z,13.40
2023-02-08T01:08:06.560Z,14.05
2023-02-08T01:10:33.532Z,14.90
2023-02-08T01:13:01.735Z,14.00
2023-02-08T01:15:28.420Z,14.18
2023-02-08T01:17:55.705Z,13.02
2023-02-08T01:20:25.015Z,14.40
2023-02-08T01:22:51.636Z,13.93
2023-02-08T01:25:18.298Z,14.82
2023-02-08T01:27:44.977Z,14.15
2023-02-08T01:30:12.235Z,14.45
2023-02-08T01:32:38.856Z,14.63
2023-02-08T01:35:05.909Z,14.23
2023-02-08T01:37:32.548Z,13.95
2023-02-08T01:39:59.185Z,13.38
2023-02-08T01:42:25.818Z,13.35
2023-02-08T01:45:20.917Z,13.57
2023-02-08T01:48:05.180Z,13.80
2023-02-08T01:53:00.451Z,13.45
2023-02-08T01:55:32.508Z,13.60
2023-02-08T01:58:01.484Z,13.65
2023-02-08T02:00:28.412Z,13.77
2023-02-08T02:02:55.767Z,14.25
2023-02-08T02:05:23.727Z,15.10
2023-02-08T02:07:50.974Z,14.15
2023-02-08T02:10:32.347Z,15.32
2023-02-08T02:13:14.744Z,15.05
2023-02-08T02:15:42.494Z,13.98
2023-02-08T02:18:09.184Z,14.32
2023-02-08T02:20:42.390Z,14.50
2023-02-08T02:23:36.947Z,14.20
2023-02-08T02:26:31.438Z,14.18
2023-02-08T02:31:43.243Z,14.82
2023-02-08T02:34:10.635Z,14.18
2023-02-08T02:36:55.844Z,13.80
2023-02-08T02:39:22.418Z,13.85
2023-02-08T02:42:10.598Z,14.25
2023-02-08T02:45:06.082Z,14.75
2023-02-08T02:48:05.810Z,14.23
2023-02-08T02:50:44.599Z,14.43
2023-02-08T02:53:32.211Z,14.32
2023-02-08T02:56:06.325Z,15.20
2023-02-08T02:58:33.191Z,14.35
2023-02-08T03:00:59.972Z,14.80
2023-02-08T03:03:28.158Z,14.05
2023-02-08T03:05:58.544Z,13.95
2023-02-08T03:09:14.431Z,14.88
2023-02-08T03:11:42.008Z,13.52
2023-02-08T03:14:35.316Z,14.10
2023-02-08T03:17:19.935Z,13.93
2023-02-08T03:19:57.370Z,15.15
2023-02-08T03:22:28.752Z,15.32
2023-02-08T03:25:03.064Z,14.05
2023-02-08T03:27:36.099Z,14.93
2023-02-08T03:30:27.386Z,11.27
2023-02-08T03:33:01.478Z,13.93
2023-02-08T03:35:33.312Z,15.30
2023-02-08T03:38:07.154Z,15.70
2023-02-08T03:40:44.587Z,16.38
2023-02-08T03:43:35.906Z,14.00
2023-02-08T03:46:08.215Z,15.70
2023-02-08T03:48:35.186Z,15.50
2023-02-08T03:51:01.914Z,15.05
2023-02-08T03:53:28.545Z,13.82
2023-02-08T03:56:02.288Z,15.00
2023-02-08T03:58:34.649Z,16.02
2023-02-08T04:01:07.733Z,16.45
2023-02-08T04:03:34.479Z,18.42
2023-02-08T04:06:01.155Z,16.02
2023-02-08T04:08:27.896Z,13.85
2023-02-08T04:10:54.563Z,15.65
2023-02-08T04:13:21.240Z,14.27
2023-02-08T04:15:47.952Z,13.98
2023-02-08T04:18:14.685Z,14.70
2023-02-08T04:20:41.513Z,15.60
2023-02-08T04:23:08.264Z,14.38
2023-02-08T04:25:34.878Z,13.38
2023-02-08T04:28:01.561Z,13.90
2023-02-08T04:30:28.505Z,14.00
2023-02-08T04:32:55.242Z,16.05
2023-02-08T04:35:21.915Z,15.15
2023-02-08T04:37:48.539Z,15.32
2023-02-08T04:40:15.214Z,14.77
2023-02-08T04:42:41.868Z,15.77
2023-02-08T04:45:09.214Z,15.75
2023-02-08T04:47:35.833Z,14.77
2023-02-08T04:50:02.459Z,14.68
2023-02-08T04:52:29.173Z,16.00
2023-02-08T04:54:55.761Z,14.75
2023-02-08T04:57:22.382Z,15.48
2023-02-08T04:59:49.078Z,15.90
2023-02-08T05:02:15.766Z,16.20
2023-02-08T05:04:42.489Z,17.13
2023-02-08T05:07:09.245Z,19.30
2023-02-08T05:09:35.869Z,19.80
2023-02-08T05:12:02.611Z,17.60
2023-02-08T05:14:29.285Z,15.60
2023-02-08T05:16:55.952Z,15.48
2023-02-08T05:19:22.585Z,14.65
2023-02-08T05:21:49.851Z,15.68
2023-02-08T05:24:17.020Z,15.70
2023-02-08T05:26:43.670Z,15.65
2023-02-08T05:29:10.747Z,17.13
2023-02-08T05:31:37.594Z,16.08
2023-02-08T05:34:04.384Z,16.05
2023-02-08T05:36:31.082Z,16.65
2023-02-08T05:38:57.749Z,16.67
2023-02-08T05:41:24.396Z,16.02
2023-02-08T05:43:51.068Z,16.42
2023-02-08T05:46:17.796Z,16.80
2023-02-08T05:48:44.475Z,16.63
2023-02-08T05:51:11.121Z,15.38
2023-02-08T05:53:40.337Z,16.00
2023-02-08T05:56:07.205Z,16.80
2023-02-08T05:58:34.133Z,15.82
2023-02-08T06:01:00.782Z,16.63
2023-02-08T06:03:27.518Z,16.67
2023-02-08T06:05:54.313Z,17.98
2023-02-08T06:08:20.987Z,17.30
2023-02-08T06:10:48.847Z,20.13
2023-02-08T06:13:15.972Z,17.23
2023-02-08T06:15:42.740Z,16.90
2023-02-08T06:18:09.375Z,16.17
2023-02-08T06:20:36.013Z,16.95
2023-02-08T06:23:02.974Z,16.65
2023-02-08T06:25:29.659Z,17.40
2023-02-08T06:27:57.476Z,18.67
2023-02-08T06:30:25.403Z,18.25
2023-02-08T06:32:52.411Z,18.50
2023-02-08T06:35:19.111Z,15.60
2023-02-08T06:37:45.754Z,18.48
2023-02-08T06:40:12.405Z,18.33
2023-02-08T06:42:39.393Z,29.38
2023-02-08T06:45:09.958Z,28.17
2023-02-08T06:47:37.574Z,38.33
2023-02-08T06:50:04.593Z,35.60
2023-02-08T06:52:34.508Z,30.33
2023-02-08T06:55:01.141Z,26.75
2023-02-08T06:57:27.777Z,27.13
2023-02-08T06:59:54.415Z,21.88
2023-02-08T07:02:24.249Z,21.52
2023-02-08T07:04:53.964Z,20.85
2023-02-08T07:07:20.618Z,20.58
2023-02-08T07:09:47.546Z,20.52
2023-02-08T07:12:14.221Z,20.95
2023-02-08T07:14:42.096Z,19.80
2023-02-08T07:17:08.931Z,18.45
2023-02-08T07:19:35.559Z,19.02
2023-02-08T07:22:08.094Z,19.52
2023-02-08T07:24:39.138Z,19.17
2023-02-08T07:27:06.468Z,18.60
2023-02-08T07:29:33.623Z,19.50
2023-02-08T07:32:00.915Z,18.17
2023-02-08T07:34:29.283Z,19.60
2023-02-08T07:36:55.931Z,19.45
2023-02-08T07:39:22.599Z,18.60
2023-02-08T07:41:49.388Z,17.90
2023-02-08T07:44:16.088Z,17.60
2023-02-08T07:46:42.787Z,18.35
2023-02-08T07:49:10.152Z,17.40
2023-02-08T07:51:36.806Z,17.60
2023-02-08T07:54:03.656Z,17.27
2023-02-08T07:56:30.315Z,16.55
2023-02-08T07:58:57.040Z,18.90
2023-02-08T08:01:23.910Z,19.08
2023-02-08T08:03:51.216Z,20.40
2023-02-08T08:06:19.239Z,20.90
2023-02-08T08:08:47.511Z,21.45
2023-02-08T08:11:18.101Z,17.48
2023-02-08T08:13:44.751Z,16.60
2023-02-08T08:16:11.524Z,18.02
2023-02-08T08:18:38.217Z,15.55
2023-02-08T08:21:05.117Z,14.13
2023-02-08T08:23:33.290Z,15.07
2023-02-08T08:26:00.823Z,13.95
2023-02-08T08:28:27.760Z,14.05
2023-02-08T08:30:54.634Z,14.98
2023-02-08T08:33:21.412Z,12.52
2023-02-08T08:35:48.062Z,11.23
2023-02-08T08:38:14.817Z,12.27
2023-02-08T08:40:41.759Z,10.32
2023-02-08T08:43:08.610Z,12.10
2023-02-08T08:45:36.250Z,16.20
2023-02-08T08:48:06.056Z,12.30
2023-02-08T08:50:33.001Z,11.15
2023-02-08T08:52:59.674Z,11.70
2023-02-08T08:55:27.857Z,11.35
2023-02-08T08:57:54.884Z,10.98
2023-02-08T09:00:21.606Z,12.38
2023-02-08T09:02:48.371Z,14.43
2023-02-08T09:05:15.104Z,12.75
2023-02-08T09:07:42.964Z,13.20
2023-02-08T09:10:09.661Z,12.50
2023-02-08T09:12:36.492Z,12.30
2023-02-08T09:15:03.453Z,12.05
2023-02-08T09:17:30.096Z,12.48
2023-02-08T09:19:56.736Z,11.95
2023-02-08T09:22:23.354Z,12.27
2023-02-08T09:24:50.039Z,13.50
2023-02-08T09:27:18.868Z,13.73
2023-02-08T09:29:45.821Z,13.38
2023-02-08T09:32:12.840Z,13.25
2023-02-08T09:34:39.598Z,14.23
2023-02-08T09:37:07.010Z,14.10
2023-02-08T09:39:34.762Z,17.27
2023-02-08T09:42:14.946Z,13.43
2023-02-08T09:44:53.975Z,13.88
2023-02-08T09:47:37.063Z,13.43
2023-02-08T09:50:23.432Z,13.40
2023-02-08T09:53:02.660Z,12.57
2023-02-08T09:55:35.995Z,13.98
2023-02-08T09:58:12.905Z,13.38
2023-02-08T10:00:43.361Z,14.32
2023-02-08T10:03:37.989Z,12.82
2023-02-08T10:06:08.978Z,13.85
2023-02-08T10:08:35.977Z,13.57
2023-02-08T10:11:28.043Z,13.52
2023-02-08T10:14:06.958Z,13.25
2023-02-08T10:16:55.860Z,13.55
2023-02-08T10:19:48.663Z,14.23
2023-02-08T10:22:30.275Z,14.32
2023-02-08T10:25:22.152Z,15.02
2023-02-08T10:28:16.661Z,15.18
2023-02-08T10:30:53.040Z,14.00
2023-02-08T10:33:50.394Z,13.20
2023-02-08T10:36:21.341Z,14.43
2023-02-08T10:38:49.918Z,15.73
2023-02-08T10:41:20.380Z,14.13
2023-02-08T10:43:51.968Z,14.27
2023-02-08T10:46:30.139Z,15.25
2023-02-08T10:49:03.536Z,14.18
2023-02-08T10:51:30.912Z,13.82
2023-02-08T10:53:57.844Z,15.55
2023-02-08T10:56:36.243Z,15.27
2023-02-08T10:59:15.970Z,15.85
2023-02-08T11:01:42.859Z,15.07
2023-02-08T11:04:11.270Z,15.48
2023-02-08T11:06:38.615Z,12.98
2023-02-08T11:09:06.401Z,17.48
2023-02-08T11:11:37.890Z,13.70
2023-02-08T11:14:17.782Z,17.27
2023-02-08T11:16:51.923Z,15.68
2023-02-08T11:21:50.040Z,15.07
2023-02-08T11:24:41.455Z,16.15
2023-02-08T11:27:15.992Z,15.10
2023-02-08T11:29:43.752Z,15.60
2023-02-08T11:32:18.567Z,16.15
2023-02-08T11:34:45.586Z,15.93
2023-02-08T11:37:18.010Z,15.45
2023-02-08T11:39:49.759Z,15.63
2023-02-08T11:42:21.163Z,15.18
2023-02-08T11:44:49.098Z,15.48
2023-02-08T11:47:20.533Z,15.05
2023-02-08T11:49:55.868Z,13.98
2023-02-08T11:52:36.593Z,14.98
2023-02-08T11:55:18.487Z,14.45
2023-02-08T11:57:57.987Z,12.82
2023-02-08T12:00:26.739Z,13.85
2023-02-08T12:02:59.150Z,15.43
2023-02-08T12:05:43.736Z,18.67
2023-02-08T12:08:35.743Z,16.42
2023-02-08T12:11:11.029Z,19.95
2023-02-08T12:13:56.061Z,16.90
2023-02-08T12:16:34.214Z,14.63
2023-02-08T12:19:24.437Z,15.70
2023-02-08T12:21:57.244Z,28.08
2023-02-08T12:24:56.600Z,16.05
2023-02-08T12:27:39.859Z,14.25
2023-02-08T12:30:11.409Z,13.95
2023-02-08T12:32:50.474Z,13.57
2023-02-08T12:35:39.055Z,13.50
2023-02-08T12:39:25.377Z,13.10
2023-02-08T12:42:11.439Z,13.30
2023-02-08T12:45:09.806Z,12.82
2023-02-08T12:48:07.844Z,12.77
2023-02-08T12:50:52.050Z,12.27
2023-02-08T12:53:25.831Z,11.88
2023-02-08T12:55:52.538Z,11.40
2023-02-08T12:58:30.218Z,11.38
2023-02-08T13:01:00.998Z,10.68
2023-02-08T13:03:34.303Z,10.55
2023-02-08T13:06:02.832Z,11.38
2023-02-08T13:09:03.062Z,11.07
2023-02-08T13:11:40.049Z,11.23
2023-02-08T13:14:12.078Z,10.90
2023-02-08T13:16:42.734Z,11.32
2023-02-08T13:19:59.012Z,10.90
2023-02-08T13:22:26.715Z,9.95
2023-02-08T13:25:06.376Z,10.98
2023-02-08T13:27:33.987Z,9.80
2023-02-08T13:30:00.756Z,9.13
2023-02-08T13:32:35.173Z,9.70
2023-02-08T13:35:06.186Z,8.38
2023-02-08T13:37:34.176Z,7.35
2023-02-08T13:40:06.909Z,8.48
2023-02-08T13:42:42.790Z,7.13
2023-02-08T13:45:10.659Z,8.15
2023-02-08T13:47:43.629Z,7.93
2023-02-08T13:50:48.663Z,8.40
2023-02-08T13:55:55.458Z,7.93
2023-02-08T13:58:36.702Z,8.02
2023-02-08T14:01:14.791Z,9.30
2023-02-08T14:03:41.437Z,8.15
2023-02-08T14:06:18.771Z,9.13
2023-02-08T14:08:54.403Z,9.25
2023-02-08T14:11:37.072Z,8.43
2023-02-08T14:14:23.812Z,8.90
2023-02-08T14:17:19.813Z,8.23
2023-02-08T14:19:47.847Z,9.80
2023-02-08T14:22:17.772Z,9.18
2023-02-08T14:24:49.579Z,9.57
2023-02-08T14:27:33.491Z,9.35
2023-02-08T14:30:09.870Z,9.10
2023-02-08T14:32:39.359Z,8.85
2023-02-08T14:35:18.159Z,8.60
2023-02-08T14:37:44.894Z,8.07
2023-02-08T14:40:25.101Z,8.95
2023-02-08T14:42:59.918Z,8.82
2023-02-08T14:45:30.749Z,8.55
2023-02-08T14:48:17.807Z,9.45
2023-02-08T14:51:06.837Z,9.55
2023-02-08T14:53:44.499Z,8.98
2023-02-08T14:56:31.623Z,9.45
2023-02-08T14:59:03.351Z,8.85
2023-02-08T15:01:47.041Z,8.63
2023-02-08T15:04:14.366Z,8.57
2023-02-08T15:07:00.799Z,7.97
2023-02-08T15:09:29.251Z,7.20
2023-02-08T15:12:00.158Z,6.32
2023-02-08T15:14:26.954Z,5.68
2023-02-08T15:16:55.687Z,5.80
2023-02-08T15:19:25.637Z,6.00
2023-02-08T15:21:52.373Z,7.00
2023-02-08T15:24:23.612Z,5.40
2023-02-08T15:26:52.624Z,5.88
2023-02-08T15:29:30.110Z,6.22
2023-02-08T15:31:59.584Z,6.95
2023-02-08T15:34:26.220Z,6.63
2023-02-08T15:36:53.847Z,7.32
2023-02-08T15:39:29.500Z,6.32
2023-02-08T15:41:58.522Z,6.88
2023-02-08T15:44:29.331Z,6.50
2023-02-08T15:46:58.062Z,7.18
2023-02-08T15:49:40.392Z,6.10
2023-02-08T15:52:07.322Z,6.45
2023-02-08T15:54:33.932Z,5.93
2023-02-08T15:57:03.296Z,4.82
2023-02-08T15:59:32.844Z,4.43
2023-02-08T16:02:04.761Z,4.93
2023-02-08T16:04:31.362Z,5.43
2023-02-08T16:06:59.677Z,5.45
2023-02-08T16:09:28.274Z,6.32
2023-02-08T16:11:59.418Z,5.82
2023-02-08T16:14:29.379Z,5.70
2023-02-08T16:16:57.584Z,5.18
2023-02-08T16:19:31.811Z,5.80
2023-02-08T16:24:40.314Z,5.95
2023-02-08T16:27:24.638Z,6.30
2023-02-08T16:29:51.314Z,9.80
2023-02-08T16:32:28.203Z,10.10
2023-02-08T16:34:54.851Z,13.18
2023-02-08T16:37:27.800Z,9.05
2023-02-08T16:39:58.695Z,6.68
2023-02-08T16:42:28.502Z,6.25
2023-02-08T16:45:08.324Z,5.40
2023-02-08T16:47:53.817Z,5.65
2023-02-08T16:50:27.542Z,7.03
2023-02-08T16:53:01.928Z,6.80
2023-02-08T16:57:57.781Z,6.15
2023-02-08T17:00:34.619Z,6.78
2023-02-08T17:03:01.396Z,6.93
2023-02-08T17:05:35.388Z,8.82
2023-02-08T17:08:02.053Z,10.43
2023-02-08T17:10:30.536Z,8.57
2023-02-08T17:13:13.448Z,8.00
2023-02-08T17:15:46.112Z,7.00
2023-02-08T17:18:12.996Z,7.90
2023-02-08T17:20:39.684Z,9.07
2023-02-08T17:23:06.463Z,7.53
2023-02-08T17:25:33.395Z,8.73
2023-02-08T17:28:05.532Z,9.00
2023-02-08T17:30:34.237Z,10.75
2023-02-08T17:33:00.957Z,9.57
2023-02-08T17:35:28.469Z,9.27
2023-02-08T17:37:55.749Z,9.75
2023-02-08T17:40:24.698Z,9.57
2023-02-08T17:42:54.384Z,12.02
2023-02-08T17:45:21.307Z,12.43
2023-02-08T17:47:48.203Z,13.95
2023-02-08T17:50:15.974Z,14.35
2023-02-08T17:52:43.035Z,14.95
2023-02-08T17:55:11.093Z,15.98
2023-02-08T17:57:39.449Z,12.35
2023-02-08T18:00:08.955Z,11.73
2023-02-08T18:02:36.122Z,11.68
2023-02-08T18:05:02.784Z,11.18
2023-02-08T18:07:29.431Z,10.85
2023-02-08T18:09:56.310Z,10.43
2023-02-08T18:12:22.981Z,11.48
2023-02-08T18:14:49.855Z,20.08
2023-02-08T18:17:16.778Z,23.80
2023-02-08T18:19:43.750Z,16.25
2023-02-08T18:22:10.520Z,11.98
2023-02-08T18:24:37.387Z,10.73
2023-02-08T18:27:04.044Z,8.57
2023-02-08T18:29:30.646Z,10.48
2023-02-08T18:31:57.466Z,9.73
2023-02-08T18:34:24.176Z,9.95
2023-02-08T18:36:50.845Z,10.35
2023-02-08T18:39:22.981Z,10.48
2023-02-08T18:41:52.235Z,11.82
2023-02-08T18:44:18.991Z,11.75
2023-02-08T18:46:47.766Z,11.57
2023-02-08T18:49:17.501Z,12.60
2023-02-08T18:51:44.926Z,12.75
2023-02-08T18:54:16.088Z,13.55
2023-02-08T18:56:43.799Z,14.02
2023-02-08T18:59:10.687Z,14.48
2023-02-08T19:01:37.736Z,13.45
2023-02-08T19:04:05.348Z,14.55
2023-02-08T19:06:32.485Z,12.95
2023-02-08T19:09:01.687Z,13.10
2023-02-08T19:11:34.104Z,13.60
2023-02-08T19:14:02.220Z,13.15
2023-02-08T19:16:34.477Z,12.55
2023-02-08T19:19:01.270Z,12.88
2023-02-08T19:21:28.188Z,12.93
2023-02-08T19:23:58.104Z,13.80
2023-02-08T19:26:25.836Z,13.52
2023-02-08T19:28:53.370Z,13.75
2023-02-08T19:31:21.251Z,16.60
2023-02-08T19:33:49.996Z,19.20
2023-02-08T19:36:22.508Z,20.40
2023-02-08T19:38:49.417Z,22.02
2023-02-08T19:41:21.551Z,22.50
2023-02-08T19:43:48.292Z,21.73
2023-02-08T19:46:16.286Z,22.63
2023-02-08T19:48:43.322Z,17.55
2023-02-08T19:51:10.056Z,16.65
2023-02-08T19:53:36.684Z,16.10
2023-02-08T19:56:05.237Z,15.40
2023-02-08T19:58:32.049Z,14.95
2023-02-08T20:00:58.805Z,16.75
2023-02-08T20:03:25.517Z,15.25
2023-02-08T20:05:53.524Z,16.55
2023-02-08T20:08:25.825Z,15.80
2023-02-08T20:10:53.948Z,16.95
2023-02-08T20:13:20.665Z,17.00
2023-02-08T20:15:47.395Z,16.85
2023-02-08T20:18:14.796Z,19.58
2023-02-08T20:20:41.901Z,17.33
2023-02-08T20:23:20.939Z,18.65
2023-02-08T20:25:48.904Z,18.05
2023-02-08T20:28:15.647Z,19.85
2023-02-08T20:30:42.450Z,18.23
2023-02-08T20:33:09.086Z,18.83
2023-02-08T20:35:36.352Z,18.50
2023-02-08T20:38:03.017Z,19.70
2023-02-08T20:40:29.822Z,19.42
2023-02-08T20:42:56.453Z,18.35
2023-02-08T20:45:23.279Z,18.58
2023-02-08T20:47:49.906Z,17.83
2023-02-08T20:50:19.608Z,17.30
2023-02-08T20:52:47.375Z,18.10
2023-02-08T20:55:14.034Z,18.85
2023-02-08T20:57:40.773Z,21.02
2023-02-08T21:00:07.925Z,21.60
2023-02-08T21:02:34.616Z,21.00
2023-02-08T21:05:01.304Z,21.23
2023-02-08T21:07:27.960Z,21.92
2023-02-08T21:09:54.578Z,23.45
2023-02-08T21:12:21.456Z,19.90
2023-02-08T21:14:48.324Z,19.60
2023-02-08T21:17:15.030Z,20.95
2023-02-08T21:19:41.952Z,18.88
2023-02-08T21:22:09.482Z,18.83
2023-02-08T21:24:36.110Z,18.10
2023-02-08T21:27:02.756Z,19.17
2023-02-08T21:29:29.466Z,19.27
2023-02-08T21:31:57.855Z,18.10
2023-02-08T21:34:24.636Z,17.65
2023-02-08T21:36:51.396Z,16.65
2023-02-08T21:39:18.400Z,16.80
2023-02-08T21:41:45.128Z,19.27
2023-02-08T21:44:11.808Z,19.65
2023-02-08T21:46:38.683Z,25.08
2023-02-08T21:49:23.787Z,32.88
2023-02-08T21:52:08.798Z,31.50
2023-02-08T21:54:41.760Z,28.75
2023-02-08T21:57:13.033Z,26.73
2023-02-08T21:59:39.658Z,24.45
2023-02-08T22:02:10.668Z,25.55
2023-02-08T22:04:37.422Z,22.95
2023-02-08T22:07:06.756Z,19.20
2023-02-08T22:09:33.378Z,20.05
2023-02-08T22:12:00.069Z,19.75
2023-02-08T22:14:26.730Z,20.55
2023-02-08T22:16:53.358Z,20.85
2023-02-08T22:19:20.028Z,20.38
2023-02-08T22:21:46.732Z,20.70
2023-02-08T22:24:13.367Z,20.20
2023-02-08T22:26:40.341Z,21.10
2023-02-08T22:29:06.972Z,21.33
2023-02-08T22:31:33.712Z,21.08
2023-02-08T22:34:00.675Z,19.95
2023-02-08T22:36:27.297Z,21.50
2023-02-08T22:38:54.105Z,20.67
2023-02-08T22:41:20.729Z,19.20
2023-02-08T22:43:48.432Z,23.90
2023-02-08T22:46:15.107Z,21.17
2023-02-08T22:48:41.780Z,20.95
2023-02-08T22:51:17.154Z,21.05
2023-02-08T22:53:44.392Z,21.95
2023-02-08T22:56:15.280Z,20.05
2023-02-08T22:58:42.214Z,21.40
2023-02-08T23:01:16.417Z,20.88
2023-02-08T23:03:43.378Z,20.08
2023-02-08T23:06:12.253Z,21.05
2023-02-08T23:08:39.118Z,21.02
2023-02-08T23:11:06.666Z,20.35
2023-02-08T23:13:33.540Z,21.77
2023-02-08T23:16:00.460Z,20.23
2023-02-08T23:18:27.166Z,20.17
2023-02-08T23:20:54.542Z,20.10
2023-02-08T23:23:21.578Z,19.55
2023-02-08T23:25:48.515Z,19.90
2023-02-08T23:28:15.470Z,20.20
2023-02-08T23:30:42.540Z,23.10
2023-02-08T23:33:09.664Z,23.60
2023-02-08T23:35:39.650Z,23.77
2023-02-08T23:38:06.563Z,23.77
2023-02-08T23:40:33.192Z,22.25
2023-02-08T23:42:59.903Z,22.83
2023-02-08T23:45:26.520Z,23.23
2023-02-08T23:47:53.217Z,23.77
2023-02-08T23:50:19.830Z,22.30
2023-02-08T23:52:46.464Z,22.83
2023-02-08T23:55:13.084Z,23.00
2023-02-08T23:57:39.707Z,20.85
